Time;durP1;ratioP1;P1;durP2;ratioP2;P2;SDS_P1;SDS_P2;PMS_P1;PMS_P2;Temp;Humidity;BMP_temperature;BMP_pressure;BME280_temperature;BME280_humidity;BME280_pressure;Samples;Min_cycle;Max_cycle;Signal;HPM_P1;HPM_P2
2022/08/06 00:00:52;;;;;;;3.63;2.57;;;;;;;;;;5045768;28;20210;-74
2022/08/06 00:03:19;;;;;;;3.87;2.63;;;;;;;;;;5044706;28;20660;-73
2022/08/06 00:05:47;;;;;;;4.43;2.50;;;;;;;;;;5045865;28;20281;-74
2022/08/06 00:08:14;;;;;;;6.47;2.40;;;;;;;;;;5045229;28;20207;-73
2022/08/06 00:10:41;;;;;;;3.87;2.40;;;;;;;;;;5047063;28;20207;-73
2022/08/06 00:13:08;;;;;;;6.27;2.60;;;;;;;;;;5045263;28;20211;-74
2022/08/06 00:15:36;;;;;;;5.60;2.60;;;;;;;;;;5045921;28;20215;-73
2022/08/06 00:18:04;;;;;;;6.43;2.90;;;;;;;;;;5046523;28;20294;-73
2022/08/06 00:20:31;;;;;;;5.67;2.70;;;;;;;;;;5045510;28;20223;-73
2022/08/06 00:22:59;;;;;;;3.40;2.10;;;;;;;;;;5044849;28;20301;-74
2022/08/06 00:25:26;;;;;;;6.13;2.70;;;;;;;;;;5045340;28;20214;-71
2022/08/06 00:27:53;;;;;;;7.50;2.33;;;;;;;;;;5044931;28;20336;-74
2022/08/06 00:30:21;;;;;;;6.00;2.60;;;;;;;;;;5044497;28;20211;-74
2022/08/06 00:32:48;;;;;;;5.27;2.70;;;;;;;;;;5044610;28;20685;-74
2022/08/06 00:35:16;;;;;;;4.67;2.63;;;;;;;;;;5044439;28;20234;-74
2022/08/06 00:37:43;;;;;;;4.50;2.47;;;;;;;;;;5044407;28;20231;-74
2022/08/06 00:40:11;;;;;;;4.00;2.23;;;;;;;;;;5042450;28;20210;-73
2022/08/06 00:42:38;;;;;;;15.93;2.60;;;;;;;;;;5046337;28;20581;-74
2022/08/06 00:45:07;;;;;;;5.60;2.13;;;;;;;;;;5041919;28;20207;-73
2022/08/06 00:47:35;;;;;;;5.03;2.33;;;;;;;;;;5044944;28;20246;-74
2022/08/06 00:50:02;;;;;;;6.20;2.47;;;;;;;;;;5044096;28;20207;-73
2022/08/06 00:52:31;;;;;;;3.13;2.03;;;;;;;;;;5044717;28;20203;-73
2022/08/06 00:54:58;;;;;;;3.57;2.17;;;;;;;;;;5044146;28;20611;-73
2022/08/06 00:57:26;;;;;;;4.50;2.20;;;;;;;;;;5045248;28;20227;-73
2022/08/06 00:59:53;;;;;;;4.97;2.27;;;;;;;;;;5042534;28;20570;-73
2022/08/06 01:02:20;;;;;;;3.93;2.47;;;;;;;;;;5045595;28;20198;-73
2022/08/06 01:04:47;;;;;;;4.93;2.20;;;;;;;;;;5043747;28;20218;-73
2022/08/06 01:07:14;;;;;;;5.27;2.40;;;;;;;;;;5043305;28;20716;-73
2022/08/06 01:09:43;;;;;;;3.33;2.30;;;;;;;;;;5044916;28;20199;-73
2022/08/06 01:12:10;;;;;;;4.23;2.50;;;;;;;;;;5041770;28;20214;-73
2022/08/06 01:14:37;;;;;;;2.70;2.10;;;;;;;;;;5045529;28;20298;-73
2022/08/06 01:17:09;;;;;;;3.27;2.30;;;;;;;;;;5045075;28;20240;-73
2022/08/06 01:19:47;;;;;;;3.87;2.10;;;;;;;;;;5044715;28;20207;-73
2022/08/06 01:22:18;;;;;;;4.00;2.10;;;;;;;;;;5047338;28;20201;-73
2022/08/06 01:24:55;;;;;;;3.53;2.30;;;;;;;;;;5041954;28;20214;-73
2022/08/06 01:27:31;;;;;;;3.87;2.47;;;;;;;;;;5045233;28;20694;-74
2022/08/06 01:30:02;;;;;;;6.00;2.73;;;;;;;;;;5046381;28;20298;-74
2022/08/06 01:32:31;;;;;;;7.13;2.60;;;;;;;;;;5044635;28;20195;-73
2022/08/06 01:35:01;;;;;;;3.90;2.27;;;;;;;;;;5042169;28;20642;-73
2022/08/06 01:37:30;;;;;;;5.40;2.20;;;;;;;;;;5043046;28;20234;-73
2022/08/06 01:39:59;;;;;;;4.20;2.50;;;;;;;;;;5047023;28;20745;-73
2022/08/06 01:42:30;;;;;;;3.40;2.20;;;;;;;;;;5045229;28;20207;-74
2022/08/06 01:45:00;;;;;;;6.00;2.13;;;;;;;;;;5045499;28;20199;-74
2022/08/06 01:47:29;;;;;;;6.07;2.07;;;;;;;;;;5043777;28;20223;-73
2022/08/06 01:49:59;;;;;;;5.67;2.10;;;;;;;;;;5045931;28;20697;-74
2022/08/06 01:52:26;;;;;;;5.73;2.33;;;;;;;;;;5045843;28;20421;-73
2022/08/06 01:54:58;;;;;;;7.23;2.10;;;;;;;;;;5042672;28;20207;-72
2022/08/06 01:57:25;;;;;;;5.23;2.53;;;;;;;;;;5041739;28;20238;-74
2022/08/06 01:59:55;;;;;;;4.43;2.40;;;;;;;;;;5042545;28;20207;-75
2022/08/06 02:02:25;;;;;;;2.67;2.10;;;;;;;;;;5042795;28;20298;-74
2022/08/06 02:04:54;;;;;;;7.20;2.43;;;;;;;;;;5043923;28;20205;-73
2022/08/06 02:07:24;;;;;;;5.70;2.20;;;;;;;;;;5043380;28;20225;-75
2022/08/06 02:09:52;;;;;;;6.07;2.50;;;;;;;;;;5042604;28;20294;-74
2022/08/06 02:12:20;;;;;;;5.57;2.50;;;;;;;;;;5047423;28;20211;-74
2022/08/06 02:14:52;;;;;;;4.00;2.50;;;;;;;;;;5044758;28;20207;-74
2022/08/06 02:17:22;;;;;;;3.83;2.10;;;;;;;;;;5046157;28;20280;-73
2022/08/06 02:19:51;;;;;;;5.33;2.00;;;;;;;;;;5046591;28;20587;-73
2022/08/06 02:22:19;;;;;;;7.10;2.50;;;;;;;;;;5043727;28;20213;-73
2022/08/06 02:24:47;;;;;;;6.10;2.30;;;;;;;;;;5044255;28;20207;-73
2022/08/06 02:27:14;;;;;;;3.77;2.20;;;;;;;;;;5042307;28;20219;-73
2022/08/06 02:29:43;;;;;;;6.17;2.57;;;;;;;;;;5046692;28;20205;-74
2022/08/06 02:32:13;;;;;;;5.83;2.10;;;;;;;;;;5047376;28;20203;-74
2022/08/06 02:34:41;;;;;;;4.83;2.13;;;;;;;;;;5044921;28;20250;-74
2022/08/06 02:37:12;;;;;;;6.43;2.40;;;;;;;;;;5044787;28;20233;-73
2022/08/06 02:39:41;;;;;;;3.57;2.43;;;;;;;;;;5044933;28;20207;-74
2022/08/06 02:42:10;;;;;;;6.50;2.47;;;;;;;;;;5041549;28;20585;-73
2022/08/06 02:44:42;;;;;;;4.53;2.27;;;;;;;;;;5043288;28;20207;-73
2022/08/06 02:47:10;;;;;;;6.13;2.23;;;;;;;;;;5042571;28;20228;-73
2022/08/06 02:49:39;;;;;;;3.30;2.20;;;;;;;;;;5041910;28;20203;-73
2022/08/06 02:52:12;;;;;;;6.17;2.40;;;;;;;;;;5042665;28;20290;-72
2022/08/06 02:54:40;;;;;;;5.40;2.60;;;;;;;;;;5043050;28;20211;-73
2022/08/06 02:57:09;;;;;;;5.00;2.57;;;;;;;;;;5038397;28;20223;-73
2022/08/06 02:59:40;;;;;;;8.93;2.23;;;;;;;;;;5042821;28;20207;-75
2022/08/06 03:02:09;;;;;;;3.30;2.40;;;;;;;;;;5046041;28;20711;-73
2022/08/06 03:04:38;;;;;;;6.90;2.30;;;;;;;;;;5043118;28;20219;-72
2022/08/06 03:07:10;;;;;;;3.93;2.47;;;;;;;;;;5047188;28;20237;-74
2022/08/06 03:09:39;;;;;;;3.00;2.10;;;;;;;;;;5042594;28;20241;-73
2022/08/06 03:12:07;;;;;;;2.50;2.30;;;;;;;;;;5042480;28;20211;-73
2022/08/06 03:14:35;;;;;;;5.90;2.27;;;;;;;;;;5043223;28;20772;-73
2022/08/06 03:17:03;;;;;;;4.50;2.40;;;;;;;;;;5049232;28;20313;-73
2022/08/06 03:19:31;;;;;;;2.67;1.80;;;;;;;;;;5047186;28;20207;-73
2022/08/06 03:21:59;;;;;;;2.60;2.13;;;;;;;;;;5045465;28;20207;-72
2022/08/06 03:24:27;;;;;;;4.87;2.00;;;;;;;;;;5047771;28;20372;-73
2022/08/06 03:26:57;;;;;;;3.07;2.17;;;;;;;;;;5046882;28;20234;-72
2022/08/06 03:29:25;;;;;;;3.53;2.10;;;;;;;;;;5044216;28;20209;-73
2022/08/06 03:31:52;;;;;;;7.67;2.10;;;;;;;;;;5048077;28;20302;-73
2022/08/06 03:34:19;;;;;;;6.17;2.47;;;;;;;;;;5046755;28;20293;-74
2022/08/06 03:36:47;;;;;;;4.63;2.47;;;;;;;;;;5047390;28;20237;-72
2022/08/06 03:39:16;;;;;;;4.30;2.00;;;;;;;;;;5046882;28;20737;-72
2022/08/06 03:41:44;;;;;;;4.50;2.10;;;;;;;;;;5044620;28;20310;-73
2022/08/06 03:44:12;;;;;;;5.60;2.30;;;;;;;;;;5046199;28;20313;-73
2022/08/06 03:46:42;;;;;;;4.20;2.20;;;;;;;;;;5046096;28;20298;-74
2022/08/06 03:49:11;;;;;;;3.70;2.40;;;;;;;;;;5049072;28;20734;-75
2022/08/06 03:51:39;;;;;;;4.60;2.30;;;;;;;;;;5046284;28;20688;-73
2022/08/06 03:54:08;;;;;;;4.00;2.43;;;;;;;;;;5044550;28;20213;-73
2022/08/06 03:56:36;;;;;;;6.13;2.47;;;;;;;;;;5046576;28;20234;-73
2022/08/06 03:59:05;;;;;;;3.87;2.47;;;;;;;;;;5045271;28;20203;-75
2022/08/06 04:01:37;;;;;;;3.33;2.30;;;;;;;;;;5047673;28;20199;-74
2022/08/06 04:04:04;;;;;;;2.90;2.30;;;;;;;;;;5048136;28;20207;-74
2022/08/06 04:06:32;;;;;;;3.60;2.20;;;;;;;;;;5041568;28;20223;-74
2022/08/06 04:09:00;;;;;;;4.47;2.30;;;;;;;;;;5049062;28;20209;-73
2022/08/06 04:11:27;;;;;;;5.50;2.30;;;;;;;;;;5042817;28;20738;-73
2022/08/06 04:13:55;;;;;;;5.30;2.43;;;;;;;;;;5046172;28;20200;-72
2022/08/06 04:16:22;;;;;;;4.00;2.20;;;;;;;;;;5046449;28;20234;-73
2022/08/06 04:18:55;;;;;;;5.87;2.73;;;;;;;;;;5048635;28;20298;-73
2022/08/06 04:21:24;;;;;;;4.40;2.30;;;;;;;;;;5046789;28;20298;-74
2022/08/06 04:23:51;;;;;;;4.67;2.47;;;;;;;;;;5044931;28;20219;-73
2022/08/06 04:26:22;;;;;;;4.47;2.13;;;;;;;;;;5045541;28;20223;-72
2022/08/06 04:28:50;;;;;;;4.73;2.20;;;;;;;;;;5041290;28;20214;-73
2022/08/06 04:31:19;;;;;;;4.87;2.03;;;;;;;;;;5044476;28;20298;-75
2022/08/06 04:33:47;;;;;;;3.83;1.90;;;;;;;;;;5045939;28;20200;-73
2022/08/06 04:36:16;;;;;;;5.27;1.80;;;;;;;;;;5045198;28;20230;-74
2022/08/06 04:38:43;;;;;;;2.93;1.80;;;;;;;;;;5043434;28;20226;-74
2022/08/06 04:41:11;;;;;;;4.77;1.80;;;;;;;;;;5039516;28;20225;-74
2022/08/06 04:43:38;;;;;;;2.83;1.57;;;;;;;;;;5041142;28;20204;-74
2022/08/06 04:46:06;;;;;;;4.00;1.47;;;;;;;;;;5042222;28;20226;-74
2022/08/06 04:48:33;;;;;;;1.77;1.30;;;;;;;;;;5042151;28;20202;-73
2022/08/06 04:51:03;;;;;;;1.87;1.20;;;;;;;;;;5041189;28;20206;-73
2022/08/06 04:53:36;;;;;;;3.23;1.00;;;;;;;;;;5038819;28;20203;-74
2022/08/06 04:56:04;;;;;;;3.53;1.17;;;;;;;;;;5039121;28;20236;-73
2022/08/06 04:58:31;;;;;;;4.17;1.40;;;;;;;;;;5043707;28;20215;-74
2022/08/06 05:00:58;;;;;;;4.33;1.40;;;;;;;;;;5042800;28;20199;-71
2022/08/06 05:03:26;;;;;;;2.70;1.00;;;;;;;;;;5042923;28;20199;-73
2022/08/06 05:05:55;;;;;;;6.23;1.30;;;;;;;;;;5044585;28;20206;-73
2022/08/06 05:08:25;;;;;;;5.33;1.00;;;;;;;;;;5042534;28;20199;-73
2022/08/06 05:10:56;;;;;;;2.20;1.00;;;;;;;;;;5040776;28;20195;-73
2022/08/06 05:13:24;;;;;;;4.53;1.20;;;;;;;;;;5039343;28;20207;-73
2022/08/06 05:15:53;;;;;;;2.93;1.00;;;;;;;;;;5044771;28;20213;-71
2022/08/06 05:18:21;;;;;;;2.07;0.90;;;;;;;;;;5045382;28;20234;-72
2022/08/06 05:20:51;;;;;;;4.57;1.20;;;;;;;;;;5044696;28;20662;-71
2022/08/06 05:23:20;;;;;;;2.47;0.80;;;;;;;;;;5039258;28;20207;-71
2022/08/06 05:25:47;;;;;;;0.77;0.73;;;;;;;;;;5042728;28;20301;-71
2022/08/06 05:28:16;;;;;;;1.33;0.80;;;;;;;;;;5041008;28;20207;-71
2022/08/06 05:30:44;;;;;;;2.87;1.07;;;;;;;;;;5041650;28;20206;-71
2022/08/06 05:33:11;;;;;;;2.43;0.90;;;;;;;;;;5043664;28;20211;-71
2022/08/06 05:35:38;;;;;;;2.17;1.10;;;;;;;;;;5042845;28;20215;-71
2022/08/06 05:38:05;;;;;;;3.90;1.03;;;;;;;;;;5044635;28;20237;-71
2022/08/06 05:40:35;;;;;;;2.00;1.00;;;;;;;;;;5044463;28;20851;-71
2022/08/06 05:43:02;;;;;;;1.23;0.80;;;;;;;;;;5046504;28;20203;-73
2022/08/06 05:45:30;;;;;;;3.97;1.20;;;;;;;;;;5043616;28;20667;-74
2022/08/06 05:47:59;;;;;;;2.73;0.90;;;;;;;;;;5044025;28;20218;-74
2022/08/06 05:50:28;;;;;;;2.83;0.87;;;;;;;;;;5043301;28;20602;-73
2022/08/06 05:52:58;;;;;;;1.40;0.90;;;;;;;;;;5042156;28;20217;-73
2022/08/06 05:55:27;;;;;;;2.47;1.10;;;;;;;;;;5045702;28;20210;-73
2022/08/06 05:57:56;;;;;;;1.77;1.00;;;;;;;;;;5041516;28;20243;-74
2022/08/06 06:00:24;;;;;;;2.67;1.00;;;;;;;;;;5042930;28;20579;-74
2022/08/06 06:02:54;;;;;;;1.83;0.73;;;;;;;;;;5042554;28;20207;-74
2022/08/06 06:05:22;;;;;;;1.33;0.93;;;;;;;;;;5040393;28;20677;-72
2022/08/06 06:07:50;;;;;;;1.30;0.67;;;;;;;;;;5040451;28;20592;-72
2022/08/06 06:10:18;;;;;;;2.90;0.90;;;;;;;;;;5040960;28;20207;-71
2022/08/06 06:12:45;;;;;;;4.00;0.80;;;;;;;;;;5040349;28;20200;-72
2022/08/06 06:15:13;;;;;;;4.73;1.00;;;;;;;;;;5041560;28;20695;-72
2022/08/06 06:17:46;;;;;;;1.23;0.87;;;;;;;;;;5040250;28;20803;-72
2022/08/06 06:20:18;;;;;;;1.60;0.70;;;;;;;;;;5044344;28;20229;-72
2022/08/06 06:22:50;;;;;;;2.10;0.90;;;;;;;;;;5044008;28;20211;-72
2022/08/06 06:25:20;;;;;;;5.40;0.63;;;;;;;;;;5038804;28;20298;-72
2022/08/06 06:27:49;;;;;;;2.93;1.00;;;;;;;;;;5040163;28;20222;-72
2022/08/06 06:30:18;;;;;;;1.17;0.70;;;;;;;;;;5044011;28;20203;-71
2022/08/06 06:32:47;;;;;;;2.80;0.70;;;;;;;;;;5042334;28;20199;-73
2022/08/06 06:35:21;;;;;;;1.80;0.80;;;;;;;;;;5045484;28;20209;-73
2022/08/06 06:37:51;;;;;;;4.13;0.70;;;;;;;;;;5036253;28;20226;-73
2022/08/06 06:40:23;;;;;;;2.77;0.80;;;;;;;;;;5043220;28;20203;-73
2022/08/06 06:42:55;;;;;;;2.73;1.10;;;;;;;;;;5040060;28;20678;-73
2022/08/06 06:45:26;;;;;;;2.07;0.80;;;;;;;;;;5043721;28;20286;-73
2022/08/06 06:47:56;;;;;;;3.27;0.80;;;;;;;;;;5042668;28;20326;-73
2022/08/06 06:50:27;;;;;;;4.60;0.90;;;;;;;;;;5043113;28;20194;-72
2022/08/06 06:52:55;;;;;;;2.20;1.00;;;;;;;;;;5044395;28;20294;-73
2022/08/06 06:55:25;;;;;;;3.60;0.70;;;;;;;;;;5044703;28;20199;-73
2022/08/06 06:57:53;;;;;;;5.57;1.03;;;;;;;;;;5037793;28;20222;-71
2022/08/06 07:00:21;;;;;;;4.03;1.10;;;;;;;;;;5046749;28;20280;-73
2022/08/06 07:02:49;;;;;;;5.37;1.00;;;;;;;;;;5045231;28;20211;-72
2022/08/06 07:05:17;;;;;;;1.47;0.60;;;;;;;;;;5042574;28;20616;-72
2022/08/06 07:07:47;;;;;;;1.70;0.80;;;;;;;;;;5042176;28;20702;-73
2022/08/06 07:10:15;;;;;;;2.00;0.80;;;;;;;;;;5043570;28;20733;-73
2022/08/06 07:12:44;;;;;;;4.43;0.87;;;;;;;;;;5041132;28;20294;-72
2022/08/06 07:15:12;;;;;;;2.97;0.70;;;;;;;;;;5041673;28;20323;-73
2022/08/06 07:17:41;;;;;;;2.77;0.87;;;;;;;;;;5042698;28;20235;-73
2022/08/06 07:20:10;;;;;;;4.03;0.70;;;;;;;;;;5038329;28;20227;-73
2022/08/06 07:22:38;;;;;;;1.93;0.60;;;;;;;;;;5036760;28;20227;-73
2022/08/06 07:25:08;;;;;;;2.70;0.70;;;;;;;;;;5043008;28;20211;-73
2022/08/06 07:27:36;;;;;;;1.43;0.67;;;;;;;;;;5040362;28;20229;-73
2022/08/06 07:30:03;;;;;;;1.63;0.73;;;;;;;;;;5043474;28;20240;-73
2022/08/06 07:32:31;;;;;;;2.33;0.90;;;;;;;;;;5042914;28;20578;-72
2022/08/06 07:34:58;;;;;;;2.27;0.57;;;;;;;;;;5043381;28;20199;-74
2022/08/06 07:37:27;;;;;;;4.57;0.80;;;;;;;;;;5041811;28;20234;-73
2022/08/06 07:39:55;;;;;;;3.30;0.90;;;;;;;;;;5042304;28;20290;-73
2022/08/06 07:42:25;;;;;;;3.37;0.67;;;;;;;;;;5039875;28;20219;-73
2022/08/06 07:44:54;;;;;;;1.53;0.70;;;;;;;;;;5042042;28;20199;-73
2022/08/06 07:47:22;;;;;;;2.20;0.73;;;;;;;;;;5043126;28;20227;-74
2022/08/06 07:49:53;;;;;;;3.37;0.60;;;;;;;;;;5042169;28;20227;-73
2022/08/06 07:52:20;;;;;;;1.50;0.40;;;;;;;;;;5039812;28;20307;-73
2022/08/06 07:54:48;;;;;;;3.50;0.50;;;;;;;;;;5041011;28;20210;-73
2022/08/06 07:57:15;;;;;;;0.93;0.30;;;;;;;;;;5043668;28;20223;-72
2022/08/06 07:59:44;;;;;;;2.50;0.70;;;;;;;;;;5041255;28;20889;-73
2022/08/06 08:02:12;;;;;;;2.10;0.50;;;;;;;;;;5049012;28;20207;-73
2022/08/06 08:07:25;;;;;;;1.57;0.50;;;;;;;;;;5047002;28;20225;-73
2022/08/06 08:09:53;;;;;;;1.90;0.50;;;;;;;;;;5044647;28;20207;-72
2022/08/06 08:12:20;;;;;;;3.77;0.60;;;;;;;;;;5045311;28;20278;-73
2022/08/06 08:14:50;;;;;;;1.63;0.53;;;;;;;;;;5042453;28;20496;-72
2022/08/06 08:17:17;;;;;;;1.07;0.63;;;;;;;;;;5041083;28;20309;-72
2022/08/06 08:19:44;;;;;;;2.30;0.80;;;;;;;;;;5045081;28;20203;-72
2022/08/06 08:22:13;;;;;;;0.80;0.40;;;;;;;;;;5042412;28;20203;-72
2022/08/06 08:24:40;;;;;;;2.83;0.40;;;;;;;;;;5043908;28;20279;-72
2022/08/06 08:27:10;;;;;;;0.87;0.40;;;;;;;;;;5049443;28;20227;-71
2022/08/06 08:29:37;;;;;;;1.47;0.40;;;;;;;;;;5045246;28;20207;-72
2022/08/06 08:32:06;;;;;;;3.33;0.50;;;;;;;;;;5045435;28;20206;-74
2022/08/06 08:34:33;;;;;;;2.93;0.73;;;;;;;;;;5042818;28;20207;-72
2022/08/06 08:37:01;;;;;;;4.17;0.50;;;;;;;;;;5046781;28;20231;-72
2022/08/06 08:39:28;;;;;;;2.70;0.40;;;;;;;;;;5044848;28;20218;-72
2022/08/06 08:42:00;;;;;;;2.10;0.40;;;;;;;;;;5042781;28;20203;-73
2022/08/06 08:44:27;;;;;;;2.10;0.50;;;;;;;;;;5045353;28;20200;-72
2022/08/06 08:46:57;;;;;;;3.47;0.80;;;;;;;;;;5045748;28;20227;-73
2022/08/06 08:49:29;;;;;;;1.70;0.40;;;;;;;;;;5043504;28;20545;-73
2022/08/06 08:51:57;;;;;;;2.67;0.50;;;;;;;;;;5049516;28;20196;-72
2022/08/06 08:54:26;;;;;;;2.77;0.60;;;;;;;;;;5045883;28;20199;-72
2022/08/06 08:56:53;;;;;;;2.80;0.70;;;;;;;;;;5044814;28;20242;-70
2022/08/06 08:59:21;;;;;;;3.17;0.53;;;;;;;;;;5044153;28;20215;-72
2022/08/06 09:01:48;;;;;;;4.50;0.60;;;;;;;;;;5043123;28;20214;-72
2022/08/06 09:04:15;;;;;;;1.80;0.50;;;;;;;;;;5044025;28;20261;-72
2022/08/06 09:06:44;;;;;;;1.20;0.50;;;;;;;;;;5043272;28;20709;-72
2022/08/06 09:09:12;;;;;;;1.17;0.40;;;;;;;;;;5041896;28;20294;-71
2022/08/06 09:11:39;;;;;;;3.40;0.60;;;;;;;;;;5043967;28;20589;-71
2022/08/06 09:14:08;;;;;;;2.23;0.63;;;;;;;;;;5042015;28;20207;-71
2022/08/06 09:16:38;;;;;;;1.27;0.50;;;;;;;;;;5044026;28;20358;-72
2022/08/06 09:19:06;;;;;;;1.97;0.70;;;;;;;;;;5044759;28;20219;-72
2022/08/06 09:21:34;;;;;;;3.40;0.70;;;;;;;;;;5043610;28;20651;-72
2022/08/06 09:24:02;;;;;;;3.60;0.60;;;;;;;;;;5045360;28;20219;-72
2022/08/06 09:26:33;;;;;;;3.03;0.50;;;;;;;;;;5043026;28;20235;-72
2022/08/06 09:29:01;;;;;;;1.20;0.40;;;;;;;;;;5044193;28;20296;-71
2022/08/06 09:31:28;;;;;;;1.40;0.40;;;;;;;;;;5042319;28;20214;-71
2022/08/06 09:33:58;;;;;;;1.83;0.77;;;;;;;;;;5044616;28;20211;-72
2022/08/06 09:36:27;;;;;;;2.60;0.80;;;;;;;;;;5044754;28;20223;-71
2022/08/06 09:38:55;;;;;;;4.30;0.50;;;;;;;;;;5044003;28;20215;-71
2022/08/06 09:41:24;;;;;;;3.40;0.47;;;;;;;;;;5044895;28;20210;-71
2022/08/06 09:43:53;;;;;;;3.20;0.50;;;;;;;;;;5043160;28;20261;-72
2022/08/06 09:46:36;;;;;;;2.83;0.60;;;;;;;;;;5043803;28;20231;-72
2022/08/06 09:49:04;;;;;;;3.27;0.70;;;;;;;;;;5038625;28;20654;-72
2022/08/06 09:51:34;;;;;;;3.17;0.50;;;;;;;;;;5044312;28;20203;-73
2022/08/06 09:54:02;;;;;;;1.20;0.50;;;;;;;;;;5044015;28;20726;-72
2022/08/06 09:56:30;;;;;;;2.87;0.40;;;;;;;;;;5041079;28;20303;-72
2022/08/06 09:58:59;;;;;;;3.90;0.70;;;;;;;;;;5043629;28;20223;-71
2022/08/06 10:01:27;;;;;;;0.57;0.40;;;;;;;;;;5045645;28;20293;-72
2022/08/06 10:03:55;;;;;;;1.37;0.50;;;;;;;;;;5042564;28;20645;-72
2022/08/06 10:06:22;;;;;;;2.67;0.60;;;;;;;;;;5043983;28;20309;-72
2022/08/06 10:08:50;;;;;;;2.47;0.60;;;;;;;;;;5044796;28;20752;-72
2022/08/06 10:11:17;;;;;;;2.47;0.40;;;;;;;;;;5047101;28;20303;-73
2022/08/06 10:13:49;;;;;;;1.10;0.50;;;;;;;;;;5042013;28;20200;-73
2022/08/06 10:16:17;;;;;;;1.27;0.80;;;;;;;;;;5044492;28;20577;-72
2022/08/06 10:18:46;;;;;;;4.63;0.50;;;;;;;;;;5042810;28;20230;-72
2022/08/06 10:21:14;;;;;;;1.57;0.60;;;;;;;;;;5042116;28;20212;-72
2022/08/06 10:23:42;;;;;;;4.10;0.60;;;;;;;;;;5043181;28;20242;-72
2022/08/06 10:26:10;;;;;;;2.17;0.50;;;;;;;;;;5043134;28;20239;-71
2022/08/06 10:28:38;;;;;;;2.10;0.60;;;;;;;;;;5045042;28;20219;-72
2022/08/06 10:31:07;;;;;;;2.07;0.70;;;;;;;;;;5041188;28;20206;-72
2022/08/06 10:33:41;;;;;;;3.00;0.50;;;;;;;;;;5043881;28;20290;-73
2022/08/06 10:36:10;;;;;;;1.90;0.60;;;;;;;;;;5042521;28;20223;-72
2022/08/06 10:38:39;;;;;;;1.10;0.57;;;;;;;;;;5041325;28;20226;-72
2022/08/06 10:41:08;;;;;;;0.40;0.30;;;;;;;;;;5045278;28;20311;-70
2022/08/06 10:43:36;;;;;;;0.90;0.50;;;;;;;;;;5044607;28;20206;-73
2022/08/06 10:46:05;;;;;;;1.23;0.50;;;;;;;;;;5043291;28;20226;-73
2022/08/06 10:48:34;;;;;;;3.13;0.60;;;;;;;;;;5043738;28;20211;-72
2022/08/06 10:51:01;;;;;;;1.90;0.53;;;;;;;;;;5042309;28;20206;-73
2022/08/06 10:53:29;;;;;;;0.63;0.50;;;;;;;;;;5046614;28;20611;-73
2022/08/06 10:55:56;;;;;;;3.27;0.70;;;;;;;;;;5041202;28;20732;-72
2022/08/06 10:58:24;;;;;;;1.73;0.63;;;;;;;;;;5041746;28;20227;-73
2022/08/06 11:00:52;;;;;;;2.87;0.70;;;;;;;;;;5039597;28;20199;-73
2022/08/06 11:03:23;;;;;;;4.27;0.77;;;;;;;;;;5042834;28;20209;-70
2022/08/06 11:05:57;;;;;;;1.23;0.50;;;;;;;;;;5035321;28;20748;-71
2022/08/06 11:08:37;;;;;;;2.90;0.50;;;;;;;;;;5038404;28;20225;-72
2022/08/06 11:11:14;;;;;;;1.67;0.50;;;;;;;;;;5041098;28;20641;-73
2022/08/06 11:13:48;;;;;;;1.50;0.60;;;;;;;;;;5041003;28;20733;-72
2022/08/06 11:16:23;;;;;;;3.70;0.70;;;;;;;;;;5033632;28;20335;-71
2022/08/06 11:19:05;;;;;;;3.37;0.70;;;;;;;;;;5040689;28;20226;-72
2022/08/06 11:21:45;;;;;;;6.87;0.97;;;;;;;;;;5039123;28;20194;-73
2022/08/06 11:24:13;;;;;;;1.60;0.60;;;;;;;;;;5039896;28;20207;-72
2022/08/06 11:26:41;;;;;;;1.33;0.40;;;;;;;;;;5037427;28;20225;-72
2022/08/06 11:29:08;;;;;;;0.63;0.50;;;;;;;;;;5041656;28;20207;-72
2022/08/06 11:31:37;;;;;;;0.70;0.57;;;;;;;;;;5041023;28;20195;-72
2022/08/06 11:34:05;;;;;;;1.87;0.50;;;;;;;;;;5040960;28;20233;-72
2022/08/06 11:36:45;;;;;;;1.03;0.57;;;;;;;;;;5045060;28;20320;-73
2022/08/06 11:39:13;;;;;;;0.77;0.60;;;;;;;;;;5044363;28;20229;-74
2022/08/06 11:41:45;;;;;;;1.13;0.70;;;;;;;;;;5046942;28;20327;-73
2022/08/06 11:44:15;;;;;;;1.90;0.60;;;;;;;;;;5045416;28;20199;-73
2022/08/06 11:46:45;;;;;;;3.63;0.60;;;;;;;;;;5045119;28;20655;-72
2022/08/06 11:49:13;;;;;;;0.77;0.50;;;;;;;;;;5044864;28;20199;-72
2022/08/06 11:51:41;;;;;;;3.40;0.77;;;;;;;;;;5045321;28;20234;-73
2022/08/06 11:54:13;;;;;;;1.23;0.60;;;;;;;;;;5047122;28;20207;-73
2022/08/06 11:56:59;;;;;;;5.33;0.70;;;;;;;;;;5043156;28;20222;-73
2022/08/06 11:59:27;;;;;;;1.10;0.40;;;;;;;;;;5040339;28;20221;-73
2022/08/06 12:01:54;;;;;;;3.10;0.60;;;;;;;;;;5044232;28;20294;-72
2022/08/06 12:04:42;;;;;;;2.37;0.60;;;;;;;;;;5046236;28;20199;-72
2022/08/06 12:07:16;;;;;;;1.10;0.40;;;;;;;;;;5044416;28;20222;-73
2022/08/06 12:09:45;;;;;;;4.37;0.70;;;;;;;;;;5042799;28;20205;-73
2022/08/06 12:12:33;;;;;;;5.73;0.60;;;;;;;;;;5043177;28;20743;-72
2022/08/06 12:15:01;;;;;;;2.27;0.40;;;;;;;;;;5042155;28;20221;-73
2022/08/06 12:17:29;;;;;;;1.17;0.50;;;;;;;;;;5042168;28;20223;-73
2022/08/06 12:19:57;;;;;;;0.80;0.50;;;;;;;;;;5044314;28;20252;-73
2022/08/06 12:22:25;;;;;;;0.90;0.50;;;;;;;;;;5042477;28;20745;-73
2022/08/06 12:24:54;;;;;;;3.27;0.53;;;;;;;;;;5046246;28;20215;-72
2022/08/06 12:27:22;;;;;;;0.83;0.57;;;;;;;;;;5045914;28;20712;-73
2022/08/06 12:29:50;;;;;;;1.17;0.50;;;;;;;;;;5043314;28;20210;-72
2022/08/06 12:32:21;;;;;;;2.30;0.50;;;;;;;;;;5044875;28;20340;-73
2022/08/06 12:34:48;;;;;;;2.90;0.90;;;;;;;;;;5044476;28;20207;-72
2022/08/06 12:37:15;;;;;;;1.57;0.60;;;;;;;;;;5043959;28;20322;-72
2022/08/06 12:45:11;;;;;;;2.10;0.40;;;;;;;;;;5042779;28;20720;-72
2022/08/06 12:47:39;;;;;;;3.87;0.70;;;;;;;;;;5045176;28;20710;-72
2022/08/06 12:50:26;;;;;;;1.17;0.40;;;;;;;;;;5045273;28;20227;-73
2022/08/06 12:53:02;;;;;;;0.60;0.50;;;;;;;;;;5047637;28;20238;-74
2022/08/06 12:55:30;;;;;;;1.40;0.30;;;;;;;;;;5040930;28;20195;-71
2022/08/06 12:57:59;;;;;;;1.83;0.47;;;;;;;;;;5046411;28;20223;-71
2022/08/06 13:00:27;;;;;;;1.70;0.60;;;;;;;;;;5045812;28;20224;-72
2022/08/06 13:02:54;;;;;;;4.57;0.60;;;;;;;;;;5045007;28;20749;-72
2022/08/06 13:05:25;;;;;;;1.60;0.40;;;;;;;;;;5044571;28;20207;-72
2022/08/06 13:07:53;;;;;;;1.60;0.50;;;;;;;;;;5047818;28;20222;-72
2022/08/06 13:10:20;;;;;;;0.87;0.40;;;;;;;;;;5041794;28;20203;-71
2022/08/06 13:12:54;;;;;;;2.07;0.50;;;;;;;;;;5046260;28;20227;-71
2022/08/06 13:15:22;;;;;;;5.30;0.87;;;;;;;;;;5043775;28;20191;-72
2022/08/06 13:18:03;;;;;;;1.03;0.40;;;;;;;;;;5046424;28;20254;-71
2022/08/06 13:20:40;;;;;;;2.53;0.40;;;;;;;;;;5039264;28;20304;-71
2022/08/06 13:23:08;;;;;;;1.60;0.60;;;;;;;;;;5035734;28;20603;-73
2022/08/06 13:25:42;;;;;;;3.93;0.50;;;;;;;;;;5042313;28;20587;-71
2022/08/06 13:28:10;;;;;;;4.30;0.67;;;;;;;;;;5042320;28;20194;-71
2022/08/06 13:30:38;;;;;;;1.80;0.40;;;;;;;;;;5043262;28;20196;-72
2022/08/06 13:33:13;;;;;;;1.70;0.50;;;;;;;;;;5036769;28;20208;-72
2022/08/06 13:35:40;;;;;;;3.83;0.63;;;;;;;;;;5043708;28;20226;-73
2022/08/06 13:38:09;;;;;;;0.83;0.30;;;;;;;;;;5042195;28;20709;-72
2022/08/06 13:40:41;;;;;;;1.47;0.40;;;;;;;;;;5042908;28;20215;-73
2022/08/06 13:43:09;;;;;;;1.90;0.60;;;;;;;;;;5044248;28;20214;-73
2022/08/06 13:45:36;;;;;;;1.70;0.63;;;;;;;;;;5045204;28;20238;-71
2022/08/06 13:48:05;;;;;;;5.67;0.50;;;;;;;;;;5045522;28;20737;-72
2022/08/06 13:50:33;;;;;;;0.80;0.30;;;;;;;;;;5044999;28;20205;-72
2022/08/06 13:53:01;;;;;;;4.13;0.40;;;;;;;;;;5043807;28;20289;-72
2022/08/06 13:55:29;;;;;;;1.63;0.60;;;;;;;;;;5041566;28;20283;-72
2022/08/06 13:57:56;;;;;;;1.10;0.40;;;;;;;;;;5042499;28;20760;-72
2022/08/06 14:00:23;;;;;;;1.33;0.50;;;;;;;;;;5040357;28;20776;-72
2022/08/06 14:02:50;;;;;;;1.30;0.50;;;;;;;;;;5041719;28;20206;-72
2022/08/06 14:05:19;;;;;;;0.47;0.37;;;;;;;;;;5041560;28;20200;-73
2022/08/06 14:07:46;;;;;;;3.07;0.40;;;;;;;;;;5039411;28;20219;-72
2022/08/06 14:10:13;;;;;;;1.50;0.43;;;;;;;;;;5044254;28;20203;-73
2022/08/06 14:12:42;;;;;;;3.73;0.50;;;;;;;;;;5041840;28;20207;-72
2022/08/06 14:15:10;;;;;;;1.10;0.40;;;;;;;;;;5043765;28;20284;-70
2022/08/06 14:17:37;;;;;;;1.90;0.50;;;;;;;;;;5040806;28;20253;-72
2022/08/06 14:20:04;;;;;;;3.23;0.80;;;;;;;;;;5041878;28;20243;-71
2022/08/06 14:22:33;;;;;;;5.47;0.60;;;;;;;;;;5041866;28;20241;-72
2022/08/06 14:25:00;;;;;;;0.83;0.30;;;;;;;;;;5041761;28;20211;-72
2022/08/06 14:27:27;;;;;;;2.30;0.57;;;;;;;;;;5040706;28;20625;-70
2022/08/06 14:29:54;;;;;;;1.33;0.50;;;;;;;;;;5044527;28;20206;-71
2022/08/06 14:32:22;;;;;;;0.90;0.40;;;;;;;;;;5044232;28;20218;-73
2022/08/06 14:34:51;;;;;;;1.67;0.50;;;;;;;;;;5038568;28;20203;-72
2022/08/06 14:37:18;;;;;;;3.00;0.50;;;;;;;;;;5042355;28;20574;-72
2022/08/06 14:39:46;;;;;;;1.63;0.60;;;;;;;;;;5041966;28;20714;-71
2022/08/06 14:45:07;;;;;;;2.57;0.40;;;;;;;;;;5006811;28;20238;-72
2022/08/06 14:47:34;;;;;;;2.97;0.67;;;;;;;;;;5041101;28;20269;-72
2022/08/06 14:50:01;;;;;;;1.10;0.50;;;;;;;;;;5041708;28;20634;-72
2022/08/06 14:52:28;;;;;;;2.80;0.40;;;;;;;;;;5040450;28;20226;-72
2022/08/06 14:54:59;;;;;;;1.60;0.50;;;;;;;;;;5042444;28;20203;-73
2022/08/06 14:57:26;;;;;;;1.13;0.40;;;;;;;;;;5041537;28;20739;-72
2022/08/06 14:59:53;;;;;;;2.47;0.83;;;;;;;;;;5040275;28;20240;-72
2022/08/06 15:02:20;;;;;;;1.83;0.53;;;;;;;;;;5040891;28;20286;-72
2022/08/06 15:04:47;;;;;;;1.93;0.50;;;;;;;;;;5042468;28;20198;-73